KPIA

General Wayne A. Downing-Peoria International Airport

Airport
ICAO code
KPIA
Summary
ICAO Region
NAM
ICAO Territory
Location

Peoria, Illinois,

Coordinates
40° 39' 51" N , 89° 41' 35" W
KCC
Metar
Observation
KPIA 302054Z 17016G22KT 10SM OVC080 18/03 A2999 RMK AO2 PK WND 18027/2028 SLP159 60000 T01830033 56041
Station
Peoria, Greater Peoria Regional Airport
Date/Time
2023-03-30 20:54:00
Wind direction
170°
Wind speed
16 kts
Lowest cloud amount
overcast
Temperature
18.3°C
Dew point
3.3°C
Humidity
36%
Weather condition
n/a

Description

General Wayne A. Downing-Peoria International Airport, formerly Greater Peoria Regional Airport, is a joint civil and military (ANG) public use airport located 7 km west of the central business district of Peoria, a city in Peoria County, Illinois.

Climatology

Humid continental climate (Köppen climate classification Dfa) - characterized by four seasons: cold, windy, snowy winters, mild springs, hot, humid summers, and crisp and relatively short autumns. Precipitation reaches its lowest in January and February and peaks in summer and latter half of spring.

Runways

Designator Length Width Surface Rops
4/22 2439 46 ASP Yes/Yes
13/31 3080 46 CON Yes/Yes

Airport map

Aerial View

SKYbrary Partners:

Safety knowledge contributed by: